Dieringer, Washington
Current Conditions -  °F | °C
As of 8:15 AM on Sunday 25 Jan 2015 (Local Time) from KPLU Reporting Station
Moderate Fog Moderate Fog  
Wind Chill:   Ceiling: 200
Heat Index:   Visibility: 0mi
Dew Point:   Wind: 0mph
Humidity: 100%   Direction: NA
Pressure: 30.17"   Gusts: NA
Location:  47.2018°N, 122.233°W
Report Text: KPLU 251615Z AUTO 00000KT M1/4SM FG OVC002 08/08 A3017 RMK AO2
Loading
Personal Weather Stations






























Interactive Weather Map New forecast layout! Learn more

10-Day Weather Forecast

Advertisements
Track Severe Weather on mobile